Disraeli, Canada
Current Conditions -  °F | °C
As of 10:00 PM on Tuesday 21 Oct 2014 (Local Time) from CYSC Reporting Station
Light Rain Light Rain  
Wind Chill: 37°   Ceiling: 3400
Heat Index: 43°   Visibility: 9mi
Dew Point: 43°   Wind: 10mph
Humidity: 100%   Direction: 50°NE
Pressure: 30.14"   Gusts: NA
Location:  45.9°N, 71.35°W
Report Text: CYSC 220200Z AUTO 05009KT 9SM -RA BKN034 OVC046 06/06 A3014 RMK SLP213
Loading
Personal Weather Stations






























Interactive Weather Map
Tropical Storm Tracking
New forecast layout! Learn more

10-Day Weather Forecast

Advertisements
Track Severe Weather on mobile